Time;durP1;ratioP1;P1;durP2;ratioP2;P2;SDS_P1;SDS_P2;PMS_P1;PMS_P2;Temp;Humidity;BMP_temperature;BMP_pressure;BME280_temperature;BME280_humidity;BME280_pressure;Samples;Min_cycle;Max_cycle;Signal;HPM_P1;HPM_P2
2023/10/20 00:01:33;;;;;;;49.90;19.98;;;9.10;99.90;;;;;;5052073;28;20120;-70
2023/10/20 00:03:59;;;;;;;43.58;18.70;;;9.10;99.90;;;;;;5047670;28;20047;-71
2023/10/20 00:06:25;;;;;;;40.40;16.58;;;9.10;99.90;;;;;;5048134;28;20470;-70
2023/10/20 00:08:50;;;;;;;46.38;20.45;;;9.00;99.90;;;;;;5054375;28;20523;-72
2023/10/20 00:11:17;;;;;;;45.70;21.10;;;9.10;99.90;;;;;;5054231;28;20501;-73
2023/10/20 00:13:43;;;;;;;48.25;19.08;;;9.00;99.90;;;;;;5049042;28;20041;-72
2023/10/20 00:16:09;;;;;;;38.30;17.38;;;9.00;99.90;;;;;;5036142;28;20090;-71
2023/10/20 00:18:35;;;;;;;49.55;18.35;;;9.00;99.90;;;;;;5051873;28;20045;-70
2023/10/20 00:21:00;;;;;;;49.33;18.08;;;9.00;99.90;;;;;;5047739;28;20137;-71
2023/10/20 00:23:26;;;;;;;41.38;17.20;;;9.00;99.90;;;;;;5052492;28;20680;-72
2023/10/20 00:25:51;;;;;;;46.00;17.33;;;9.00;99.90;;;;;;5053019;28;20115;-71
2023/10/20 00:28:17;;;;;;;65.82;19.48;;;9.00;99.90;;;;;;5051965;28;20098;-72
2023/10/20 00:30:42;;;;;;;42.83;17.48;;;9.00;99.90;;;;;;5046780;28;20075;-72
2023/10/20 00:33:08;;;;;;;44.25;17.85;;;9.00;99.90;;;;;;5051558;28;20048;-70
2023/10/20 00:35:34;;;;;;;36.67;15.95;;;9.00;99.90;;;;;;5052046;28;20045;-69
2023/10/20 00:38:01;;;;;;;40.60;16.85;;;8.90;99.90;;;;;;5044540;28;20045;-69
2023/10/20 00:40:27;;;;;;;46.65;17.35;;;8.90;99.90;;;;;;5044984;28;20032;-69
2023/10/20 00:42:53;;;;;;;41.53;16.60;;;9.00;99.90;;;;;;5052226;28;20052;-72
2023/10/20 00:45:19;;;;;;;34.33;15.65;;;8.90;99.90;;;;;;5069488;28;20044;-72
2023/10/20 00:47:45;;;;;;;36.97;16.88;;;8.90;99.90;;;;;;5040515;28;20048;-72
2023/10/20 00:50:13;;;;;;;48.63;18.08;;;8.90;99.90;;;;;;5050675;28;20037;-70
2023/10/20 00:52:44;;;;;;;46.75;16.55;;;8.90;99.90;;;;;;5050636;28;20041;-70
2023/10/20 00:55:11;;;;;;;45.50;19.00;;;8.90;99.90;;;;;;5042776;28;20052;-72
2023/10/20 00:57:38;;;;;;;41.75;17.60;;;8.90;99.90;;;;;;5050999;28;20041;-70
2023/10/20 01:00:05;;;;;;;39.33;15.48;;;8.90;99.90;;;;;;5052378;28;20052;-70
2023/10/20 01:02:32;;;;;;;31.02;14.93;;;8.90;99.90;;;;;;5051152;28;20036;-69
2023/10/20 01:04:58;;;;;;;35.53;15.95;;;8.90;99.90;;;;;;5047340;28;20179;-71
2023/10/20 01:07:26;;;;;;;38.53;17.10;;;8.90;99.90;;;;;;5043953;28;20671;-71
2023/10/20 01:09:52;;;;;;;43.30;17.05;;;8.90;99.90;;;;;;5052626;28;20051;-71
2023/10/20 01:12:18;;;;;;;40.88;16.38;;;8.80;99.90;;;;;;5042628;28;20037;-70
2023/10/20 01:14:43;;;;;;;43.10;18.77;;;8.90;99.90;;;;;;5050000;28;20055;-72
2023/10/20 01:17:10;;;;;;;40.20;16.08;;;8.80;99.90;;;;;;5052933;28;20037;-72
2023/10/20 01:19:37;;;;;;;43.15;15.52;;;8.80;99.90;;;;;;5054303;28;20107;-73
2023/10/20 01:22:03;;;;;;;39.50;15.23;;;8.80;99.90;;;;;;5047358;28;20045;-71
2023/10/20 01:24:29;;;;;;;38.95;15.60;;;8.80;99.90;;;;;;5051347;28;20029;-71
2023/10/20 01:26:55;;;;;;;44.10;16.33;;;8.80;99.90;;;;;;5052010;28;20091;-71
2023/10/20 01:29:20;;;;;;;34.20;13.45;;;8.80;99.90;;;;;;5053346;28;20511;-72
2023/10/20 01:31:46;;;;;;;40.38;15.38;;;8.80;99.90;;;;;;5042093;28;20059;-73
2023/10/20 01:34:12;;;;;;;39.80;16.27;;;8.80;99.90;;;;;;5046649;28;20041;-70
2023/10/20 01:36:37;;;;;;;31.55;14.23;;;8.80;99.90;;;;;;5050797;28;20199;-73
2023/10/20 01:39:04;;;;;;;39.47;15.63;;;8.70;99.90;;;;;;5052087;28;20037;-72
2023/10/20 01:41:31;;;;;;;39.80;16.15;;;8.80;99.90;;;;;;5041658;28;20041;-72
2023/10/20 01:43:56;;;;;;;43.35;16.85;;;8.80;99.90;;;;;;5043557;28;20068;-72
2023/10/20 01:46:23;;;;;;;51.83;16.73;;;8.80;99.90;;;;;;5051398;28;20122;-71
2023/10/20 01:48:48;;;;;;;36.83;16.50;;;8.80;99.90;;;;;;5043300;28;20046;-71
2023/10/20 01:51:14;;;;;;;38.60;15.25;;;8.80;99.90;;;;;;5047007;28;20243;-73
2023/10/20 01:53:39;;;;;;;38.92;15.90;;;8.80;99.90;;;;;;5051090;28;20048;-71
2023/10/20 01:56:05;;;;;;;40.28;16.75;;;8.70;99.90;;;;;;5051617;28;20043;-70
2023/10/20 01:58:31;;;;;;;45.70;16.75;;;8.80;99.90;;;;;;5044780;28;20041;-70
2023/10/20 02:00:57;;;;;;;39.90;17.00;;;8.80;99.90;;;;;;5047939;28;20082;-70
2023/10/20 02:03:23;;;;;;;44.60;16.02;;;8.70;99.90;;;;;;5052264;28;20122;-73
2023/10/20 02:05:49;;;;;;;36.13;15.85;;;8.80;99.90;;;;;;5048299;28;20037;-73
2023/10/20 02:08:15;;;;;;;33.35;14.55;;;8.80;99.90;;;;;;5052328;28;20053;-73
2023/10/20 02:10:43;;;;;;;36.38;15.27;;;8.80;99.90;;;;;;5052012;28;20095;-70
2023/10/20 02:13:10;;;;;;;41.75;17.88;;;8.70;99.90;;;;;;5049858;28;20033;-69
2023/10/20 02:15:36;;;;;;;34.65;16.50;;;8.70;99.90;;;;;;5048868;28;20072;-69
2023/10/20 02:18:01;;;;;;;39.45;16.65;;;8.70;99.90;;;;;;5050780;28;20072;-71
2023/10/20 02:20:27;;;;;;;32.70;15.73;;;8.70;99.90;;;;;;5049821;28;20522;-70
2023/10/20 02:22:53;;;;;;;33.83;14.95;;;8.70;99.90;;;;;;5045507;28;20428;-70
2023/10/20 02:25:22;;;;;;;36.17;15.93;;;8.70;99.90;;;;;;5039968;28;20040;-70
2023/10/20 02:27:48;;;;;;;41.40;16.27;;;8.70;99.90;;;;;;5049850;28;20041;-72
2023/10/20 02:30:15;;;;;;;40.55;17.67;;;8.70;99.90;;;;;;5049632;28;20033;-72
2023/10/20 02:32:41;;;;;;;33.90;15.38;;;8.70;99.90;;;;;;5040189;28;20041;-72
2023/10/20 02:35:08;;;;;;;40.03;17.15;;;8.70;99.90;;;;;;5049572;28;20090;-70
2023/10/20 02:37:34;;;;;;;40.63;16.50;;;8.80;99.90;;;;;;5050838;28;20039;-72
2023/10/20 02:40:04;;;;;;;44.10;17.08;;;8.70;99.90;;;;;;5045111;28;20070;-72
2023/10/20 02:42:30;;;;;;;38.85;15.32;;;8.70;99.90;;;;;;5050112;28;20108;-70
2023/10/20 02:44:56;;;;;;;40.83;16.50;;;8.70;99.90;;;;;;5051812;28;20045;-70
2023/10/20 02:47:22;;;;;;;36.53;16.45;;;8.70;99.90;;;;;;5048025;28;20082;-73
2023/10/20 02:49:51;;;;;;;35.25;15.80;;;8.70;99.90;;;;;;5036824;28;20049;-70
2023/10/20 02:52:17;;;;;;;42.28;15.95;;;8.70;99.90;;;;;;5050959;28;20412;-72
2023/10/20 02:54:43;;;;;;;45.30;18.20;;;8.70;99.90;;;;;;5051612;28;20045;-73
2023/10/20 02:57:08;;;;;;;32.72;16.30;;;8.70;99.90;;;;;;5039316;28;20049;-71
2023/10/20 02:59:34;;;;;;;43.22;17.52;;;8.70;99.90;;;;;;5044623;28;20049;-71
2023/10/20 03:02:00;;;;;;;42.38;14.73;;;8.70;99.90;;;;;;5049267;28;20040;-71
2023/10/20 03:04:25;;;;;;;41.42;18.15;;;8.70;99.90;;;;;;5050129;28;20062;-70
2023/10/20 03:06:51;;;;;;;34.30;15.88;;;8.70;99.90;;;;;;5039631;28;20036;-70
2023/10/20 03:09:17;;;;;;;41.40;16.52;;;8.70;99.90;;;;;;5050063;28;20452;-73
2023/10/20 03:11:43;;;;;;;41.50;16.50;;;8.70;99.90;;;;;;5050966;28;20120;-73
2023/10/20 03:14:09;;;;;;;39.00;15.68;;;8.70;99.90;;;;;;5031343;28;20125;-72
2023/10/20 03:16:38;;;;;;;41.67;17.48;;;8.70;99.90;;;;;;5049600;28;20107;-72
2023/10/20 03:19:04;;;;;;;38.80;16.77;;;8.60;99.90;;;;;;5051934;28;20044;-72
2023/10/20 03:21:30;;;;;;;39.83;17.00;;;8.60;99.90;;;;;;5033308;28;20044;-72
2023/10/20 03:23:56;;;;;;;32.25;15.63;;;8.70;99.90;;;;;;5048424;28;20052;-70
2023/10/20 03:26:22;;;;;;;41.05;18.20;;;8.60;99.90;;;;;;5048715;28;20041;-71
2023/10/20 03:28:48;;;;;;;37.03;16.10;;;8.60;99.90;;;;;;5043589;28;20099;-71
2023/10/20 03:31:13;;;;;;;31.80;14.45;;;8.60;99.90;;;;;;5046788;28;20053;-71
2023/10/20 03:33:39;;;;;;;32.00;14.82;;;8.70;99.90;;;;;;5049629;28;20036;-71
2023/10/20 03:36:05;;;;;;;39.33;17.02;;;8.70;99.90;;;;;;5049990;28;20523;-72
2023/10/20 03:38:32;;;;;;;32.75;14.13;;;8.60;99.90;;;;;;5039707;28;20033;-72
2023/10/20 03:41:09;;;;;;;33.63;15.57;;;8.70;99.90;;;;;;5041446;28;20045;-70
2023/10/20 03:43:35;;;;;;;35.15;16.10;;;8.70;99.90;;;;;;5048987;28;20073;-72
2023/10/20 03:46:02;;;;;;;36.80;16.27;;;8.70;99.90;;;;;;5056477;28;20502;-73
2023/10/20 03:48:29;;;;;;;32.85;15.38;;;8.70;99.90;;;;;;5040054;28;20052;-70
2023/10/20 03:50:55;;;;;;;37.42;16.15;;;8.70;99.90;;;;;;5048292;28;20080;-70
2023/10/20 03:53:27;;;;;;;32.90;14.88;;;8.70;99.90;;;;;;5050481;28;20045;-72
2023/10/20 03:56:07;;;;;;;36.38;14.77;;;8.70;99.90;;;;;;5045967;28;20060;-72
2023/10/20 03:58:35;;;;;;;31.48;14.30;;;8.70;99.90;;;;;;5042735;28;20493;-72
2023/10/20 04:01:02;;;;;;;32.72;15.77;;;8.60;99.90;;;;;;5048084;28;20040;-72
2023/10/20 04:03:31;;;;;;;36.75;15.88;;;8.70;99.90;;;;;;5072916;22;20050;-72
2023/10/20 04:05:56;;;;;;;33.63;14.73;;;8.70;99.90;;;;;;5013405;28;20041;-72
2023/10/20 04:08:23;;;;;;;28.95;13.98;;;8.70;99.90;;;;;;5012158;28;20041;-72
2023/10/20 04:10:59;;;;;;;20.80;11.50;;;8.60;99.90;;;;;;4994718;28;20041;-72
2023/10/20 04:13:25;;;;;;;36.28;14.40;;;8.60;99.90;;;;;;5014933;28;20112;-72
2023/10/20 04:15:54;;;;;;;34.15;14.05;;;8.60;99.90;;;;;;5029641;28;20048;-72
2023/10/20 04:18:20;;;;;;;31.48;15.65;;;8.60;99.90;;;;;;5040439;28;20101;-71
2023/10/20 04:20:50;;;;;;;27.40;12.95;;;8.70;99.90;;;;;;5016272;28;20084;-70
2023/10/20 04:23:19;;;;;;;28.50;13.55;;;8.60;99.90;;;;;;5006746;28;20041;-71
2023/10/20 04:25:52;;;;;;;29.65;13.45;;;8.70;99.90;;;;;;5015847;28;20052;-71
2023/10/20 04:49:13;;;;;;;26.63;12.48;;;8.60;99.90;;;;;;5045244;28;20047;-71
2023/10/20 04:57:17;;;;;;;25.48;12.25;;;8.60;99.90;;;;;;5666856;22;20085;-71
2023/10/20 05:02:13;;;;;;;29.70;14.40;;;8.60;99.90;;;;;;5311337;22;20057;-72
2023/10/20 05:04:40;;;;;;;31.90;14.55;;;8.60;99.90;;;;;;5027759;28;20043;-72
2023/10/20 05:07:28;;;;;;;29.13;14.05;;;8.60;99.90;;;;;;5026085;28;20079;-73
2023/10/20 05:10:54;;;;;;;32.20;14.85;;;8.60;99.90;;;;;;5053740;28;20104;-73
2023/10/20 05:13:22;;;;;;;29.98;14.20;;;8.60;99.90;;;;;;5042661;28;20041;-69
2023/10/20 05:15:48;;;;;;;28.42;13.55;;;8.70;99.90;;;;;;5035128;28;20053;-70
2023/10/20 05:18:14;;;;;;;27.63;13.65;;;8.60;99.90;;;;;;5014457;28;20049;-69
2023/10/20 05:20:46;;;;;;;24.95;13.32;;;8.60;99.90;;;;;;5039695;28;20049;-70
2023/10/20 05:23:15;;;;;;;21.25;11.90;;;8.60;99.90;;;;;;5038810;28;20084;-69
2023/10/20 05:25:48;;;;;;;25.38;13.20;;;8.60;99.90;;;;;;5051138;28;20041;-69
2023/10/20 05:28:15;;;;;;;27.42;13.77;;;8.60;99.90;;;;;;5034735;28;20104;-69
2023/10/20 05:30:43;;;;;;;27.17;13.95;;;8.60;99.90;;;;;;5057124;28;20092;-69
2023/10/20 05:33:09;;;;;;;27.85;13.43;;;8.60;99.90;;;;;;5057346;28;20033;-70
2023/10/20 05:35:34;;;;;;;27.83;12.68;;;8.60;99.90;;;;;;5052345;28;20033;-70
2023/10/20 05:38:00;;;;;;;22.90;12.20;;;8.60;99.90;;;;;;5056556;28;20037;-70
2023/10/20 05:40:26;;;;;;;27.80;14.15;;;8.60;99.90;;;;;;5055721;28;20037;-70
2023/10/20 05:42:51;;;;;;;21.75;11.48;;;8.60;99.90;;;;;;5048737;28;20037;-70
2023/10/20 05:45:17;;;;;;;27.52;12.98;;;8.60;99.90;;;;;;5008697;28;20041;-70
2023/10/20 05:47:45;;;;;;;26.23;12.65;;;8.70;99.90;;;;;;5026519;28;20110;-70
2023/10/20 05:50:11;;;;;;;25.30;12.30;;;8.60;99.90;;;;;;5033257;28;20044;-70
2023/10/20 05:52:37;;;;;;;29.13;13.90;;;8.60;99.90;;;;;;5044581;23;20500;-70
2023/10/20 05:55:03;;;;;;;22.98;11.80;;;8.60;99.90;;;;;;5053430;28;20041;-70
2023/10/20 05:57:29;;;;;;;23.80;11.10;;;8.60;99.90;;;;;;5037121;28;20098;-70
2023/10/20 05:59:55;;;;;;;27.10;12.65;;;8.50;99.90;;;;;;5053482;28;20068;-70
2023/10/20 06:02:21;;;;;;;26.15;13.25;;;8.50;99.90;;;;;;5024523;28;20526;-71
2023/10/20 06:04:46;;;;;;;23.80;12.25;;;8.50;99.90;;;;;;5047691;28;20086;-70
2023/10/20 06:07:12;;;;;;;22.52;10.38;;;8.50;99.90;;;;;;5054927;28;20044;-69
2023/10/20 06:09:38;;;;;;;23.23;11.63;;;8.50;99.90;;;;;;5029512;28;20041;-70
2023/10/20 06:12:07;;;;;;;21.35;11.30;;;8.50;99.90;;;;;;5031209;28;20041;-69
2023/10/20 06:14:32;;;;;;;22.92;11.30;;;8.50;99.90;;;;;;5044808;28;20124;-68
2023/10/20 06:16:58;;;;;;;22.25;11.20;;;8.50;99.90;;;;;;5048448;28;20119;-68
2023/10/20 06:19:24;;;;;;;27.08;12.20;;;8.50;99.90;;;;;;5021362;28;20040;-70
2023/10/20 06:21:50;;;;;;;19.35;9.95;;;8.50;99.90;;;;;;5012151;28;20087;-70
2023/10/20 06:24:16;;;;;;;24.60;12.43;;;8.50;99.90;;;;;;5031308;28;20077;-70
2023/10/20 06:26:42;;;;;;;18.98;10.35;;;8.50;99.90;;;;;;5030367;28;20522;-70
2023/10/20 06:29:26;;;;;;;20.92;10.85;;;8.50;99.90;;;;;;5049677;28;20322;-69
2023/10/20 06:34:40;;;;;;;18.80;9.75;;;8.50;99.90;;;;;;5026419;28;20048;-70
2023/10/20 06:37:12;;;;;;;18.80;10.13;;;8.50;99.90;;;;;;5032250;28;20464;-70
2023/10/20 06:39:38;;;;;;;;;;;8.40;99.90;;;;;;5051380;28;20041;-69
2023/10/20 06:42:05;;;;;;;19.80;10.48;;;8.50;99.90;;;;;;5030708;28;20395;-69
2023/10/20 06:44:30;;;;;;;17.20;9.75;;;8.50;99.90;;;;;;5012732;28;20029;-69
2023/10/20 06:46:56;;;;;;;19.92;11.30;;;8.50;99.90;;;;;;5028883;28;20106;-70
2023/10/20 07:00:50;;;;;;;19.38;9.48;;;8.50;99.90;;;;;;5107945;22;20049;-69
2023/10/20 07:03:16;;;;;;;18.30;10.65;;;8.50;99.90;;;;;;5027878;28;20051;-69
2023/10/20 07:05:42;;;;;;;26.85;10.35;;;8.50;99.90;;;;;;5027231;28;20085;-69
2023/10/20 07:08:10;;;;;;;15.93;8.95;;;8.50;99.90;;;;;;5023032;28;20041;-69
2023/10/20 07:10:39;;;;;;;18.33;9.48;;;8.50;99.90;;;;;;5029315;28;20119;-69
2023/10/20 07:13:11;;;;;;;18.02;9.07;;;8.40;99.90;;;;;;5073321;22;20051;-71
2023/10/20 07:15:37;;;;;;;19.75;10.35;;;8.40;99.90;;;;;;5026555;28;20503;-71
2023/10/20 07:18:05;;;;;;;14.50;8.85;;;8.40;99.90;;;;;;5049184;28;20412;-72
2023/10/20 07:20:32;;;;;;;13.65;7.97;;;8.40;99.90;;;;;;5039635;28;20040;-71
2023/10/20 07:22:57;;;;;;;17.17;8.98;;;8.40;99.90;;;;;;5044367;28;20041;-71
2023/10/20 07:25:23;;;;;;;14.77;8.30;;;8.40;99.90;;;;;;5028747;28;20416;-72
2023/10/20 07:27:48;;;;;;;16.25;7.93;;;8.40;99.90;;;;;;5049874;28;20087;-70
2023/10/20 07:30:16;;;;;;;14.68;7.57;;;8.40;99.90;;;;;;5049085;28;20563;-69
2023/10/20 07:32:42;;;;;;;12.40;7.32;;;8.40;99.90;;;;;;5042142;28;20493;-70
2023/10/20 07:35:08;;;;;;;14.75;7.32;;;8.40;99.90;;;;;;5038669;28;20060;-70
2023/10/20 07:37:34;;;;;;;13.38;7.45;;;8.40;99.90;;;;;;5042324;28;20056;-70
2023/10/20 07:39:59;;;;;;;13.05;7.97;;;8.40;99.90;;;;;;5040064;28;20043;-67
2023/10/20 07:42:25;;;;;;;11.25;7.30;;;8.40;99.90;;;;;;5049078;28;20040;-68
2023/10/20 07:44:51;;;;;;;17.35;7.65;;;8.40;99.90;;;;;;5049554;28;20029;-68
2023/10/20 07:47:16;;;;;;;12.43;6.45;;;8.40;99.90;;;;;;5042155;28;20045;-67
2023/10/20 07:49:42;;;;;;;13.45;6.82;;;8.40;99.90;;;;;;5049182;28;20033;-67
2023/10/20 07:52:08;;;;;;;12.25;6.97;;;8.40;99.90;;;;;;5047759;28;20037;-69
2023/10/20 07:54:34;;;;;;;12.70;6.65;;;8.40;99.90;;;;;;5030624;28;20414;-72
2023/10/20 07:56:59;;;;;;;9.48;5.35;;;8.40;99.90;;;;;;5039557;28;20029;-69
2023/10/20 07:59:25;;;;;;;12.80;7.10;;;8.40;99.90;;;;;;5042991;28;20117;-69
2023/10/20 08:01:50;;;;;;;11.50;7.15;;;8.40;99.90;;;;;;5038796;28;20409;-69
2023/10/20 08:04:16;;;;;;;11.90;6.25;;;8.40;99.90;;;;;;5035524;28;20112;-69
2023/10/20 08:06:42;;;;;;;11.43;6.60;;;8.40;99.90;;;;;;5057249;28;20037;-70
2023/10/20 08:09:09;;;;;;;9.23;5.13;;;8.40;99.90;;;;;;5030945;28;20441;-69
2023/10/20 08:11:35;;;;;;;10.50;6.65;;;8.40;99.90;;;;;;5032569;28;20049;-69
2023/10/20 08:14:00;;;;;;;12.95;6.80;;;8.40;99.90;;;;;;5046635;28;20072;-69
2023/10/20 08:16:26;;;;;;;10.38;5.97;;;8.40;99.90;;;;;;5054028;28;20071;-69
2023/10/20 08:18:52;;;;;;;8.80;5.72;;;8.40;99.90;;;;;;5037169;28;20040;-68
2023/10/20 08:21:17;;;;;;;11.35;6.95;;;8.40;99.90;;;;;;5036773;28;20093;-70
2023/10/20 08:23:43;;;;;;;9.75;6.55;;;8.40;99.90;;;;;;5055276;28;20366;-72
2023/10/20 08:26:15;;;;;;;9.75;5.97;;;8.40;99.90;;;;;;5053664;28;20041;-70
2023/10/20 08:28:41;;;;;;;15.75;6.10;;;8.40;99.90;;;;;;5049612;28;20045;-70
2023/10/20 08:31:09;;;;;;;9.60;6.22;;;8.40;99.90;;;;;;5036059;28;20045;-71
2023/10/20 08:33:35;;;;;;;9.27;5.95;;;8.40;99.90;;;;;;5049896;28;20045;-69
2023/10/20 08:36:16;;;;;;;9.98;5.50;;;8.40;99.90;;;;;;5063110;28;20036;-70
2023/10/20 08:38:45;;;;;;;8.82;6.00;;;8.40;99.90;;;;;;5040324;28;20396;-69
2023/10/20 08:41:17;;;;;;;6.22;4.60;;;8.40;99.90;;;;;;5037898;28;20551;-69
2023/10/20 08:43:44;;;;;;;7.40;4.53;;;8.40;99.90;;;;;;5062893;28;20075;-70
2023/10/20 08:46:15;;;;;;;6.13;4.20;;;8.40;99.90;;;;;;5052685;28;20304;-70
2023/10/20 08:48:42;;;;;;;;;;;8.50;99.90;;;;;;5030040;28;20049;-70
2023/10/20 08:51:10;;;;;;;5.68;3.80;;;8.50;99.90;;;;;;5049024;28;19967;-70
2023/10/20 08:53:39;;;;;;;6.70;4.10;;;8.40;99.90;;;;;;5048051;28;20048;-70
2023/10/20 08:56:06;;;;;;;5.68;3.78;;;8.50;99.90;;;;;;5054654;28;20041;-70
2023/10/20 08:58:33;;;;;;;5.35;3.72;;;8.40;99.90;;;;;;5054351;28;20041;-70
2023/10/20 09:00:59;;;;;;;6.38;5.05;;;8.50;99.90;;;;;;5046100;28;20049;-69
2023/10/20 09:03:48;;;;;;;5.15;3.75;;;8.50;99.90;;;;;;5038825;28;20040;-68
2023/10/20 09:06:14;;;;;;;6.82;4.10;;;8.40;99.90;;;;;;5034855;28;20045;-69
2023/10/20 09:08:47;;;;;;;4.90;3.28;;;8.50;99.90;;;;;;5040576;28;20044;-68
2023/10/20 09:11:12;;;;;;;5.38;4.25;;;8.40;99.90;;;;;;5053187;28;20052;-69
2023/10/20 09:13:40;;;;;;;5.80;4.35;;;8.40;99.90;;;;;;5023782;28;20042;-68
2023/10/20 09:16:10;;;;;;;5.15;3.58;;;8.50;99.90;;;;;;5051266;28;20064;-69
2023/10/20 09:18:49;;;;;;;5.28;3.80;;;8.40;99.90;;;;;;5042015;28;20500;-67
2023/10/20 09:21:18;;;;;;;5.28;3.50;;;8.50;99.90;;;;;;5049065;28;20080;-68
2023/10/20 09:24:02;;;;;;;4.57;3.20;;;8.50;99.90;;;;;;5032950;28;20063;-71
2023/10/20 09:26:30;;;;;;;5.00;3.13;;;8.50;99.90;;;;;;5030898;28;20435;-69
2023/10/20 09:28:56;;;;;;;5.03;3.03;;;8.50;99.90;;;;;;5052821;28;20124;-68
2023/10/20 09:31:23;;;;;;;4.43;2.80;;;8.50;99.90;;;;;;5039166;28;20052;-66
2023/10/20 09:33:49;;;;;;;3.15;2.47;;;8.50;99.90;;;;;;5045154;28;20048;-66
2023/10/20 09:36:15;;;;;;;3.78;2.85;;;8.40;99.90;;;;;;5037369;28;20049;-66
2023/10/20 09:38:49;;;;;;;3.40;2.70;;;8.50;99.90;;;;;;5046133;28;20045;-67
2023/10/20 09:41:17;;;;;;;4.55;2.22;;;8.50;99.90;;;;;;5050851;28;20045;-68
2023/10/20 09:43:47;;;;;;;4.63;2.70;;;8.40;99.90;;;;;;5040813;28;20049;-67
2023/10/20 09:46:39;;;;;;;3.43;2.67;;;8.40;99.90;;;;;;5051659;28;20041;-69
2023/10/20 09:49:18;;;;;;;4.93;2.60;;;8.40;99.90;;;;;;5027966;28;20046;-70
2023/10/20 09:51:45;;;;;;;4.28;2.75;;;8.40;99.90;;;;;;5025501;28;20139;-69
2023/10/20 09:54:13;;;;;;;3.33;2.20;;;8.50;99.90;;;;;;5014476;28;20045;-70
2023/10/20 09:56:41;;;;;;;3.50;2.25;;;8.40;99.90;;;;;;5047179;28;20037;-68
2023/10/20 09:59:08;;;;;;;3.47;2.25;;;8.40;99.90;;;;;;5051879;28;20029;-68
2023/10/20 10:01:34;;;;;;;3.15;2.08;;;8.40;99.90;;;;;;5052062;28;20153;-68
2023/10/20 10:04:04;;;;;;;4.18;1.90;;;8.40;99.90;;;;;;5035070;28;20128;-67
2023/10/20 10:06:36;;;;;;;3.33;2.42;;;8.40;99.90;;;;;;5046608;28;20033;-68
2023/10/20 10:09:04;;;;;;;3.20;2.20;;;8.40;99.90;;;;;;5050523;28;20041;-70
2023/10/20 10:11:42;;;;;;;2.45;1.70;;;8.40;99.90;;;;;;5028620;28;20040;-69
2023/10/20 10:14:08;;;;;;;2.08;1.75;;;8.30;99.90;;;;;;5039327;28;20178;-67
2023/10/20 10:16:47;;;;;;;2.30;1.80;;;8.40;99.90;;;;;;5052260;28;20043;-66
2023/10/20 10:19:13;;;;;;;4.05;2.33;;;8.30;99.90;;;;;;5021607;28;20099;-67
2023/10/20 10:21:42;;;;;;;3.08;2.13;;;8.40;99.90;;;;;;5035019;28;20078;-67
2023/10/20 10:24:19;;;;;;;4.00;2.55;;;8.40;99.90;;;;;;5050927;28;20428;-68
2023/10/20 10:26:59;;;;;;;2.65;2.22;;;8.30;99.90;;;;;;5045731;28;20397;-68
2023/10/20 10:29:48;;;;;;;4.60;2.40;;;8.30;99.90;;;;;;5049791;28;20037;-67
2023/10/20 10:32:23;;;;;;;3.30;2.20;;;8.30;99.90;;;;;;5058221;28;20048;-68
2023/10/20 10:34:54;;;;;;;3.42;2.40;;;8.30;99.90;;;;;;5048872;28;20045;-67
2023/10/20 10:37:37;;;;;;;2.55;2.08;;;8.30;99.90;;;;;;5034163;28;20110;-67
2023/10/20 10:40:13;;;;;;;2.40;1.77;;;8.30;99.90;;;;;;5024814;28;20501;-67
2023/10/20 10:42:47;;;;;;;2.28;1.65;;;8.30;99.90;;;;;;5051428;28;20037;-67
2023/10/20 10:45:31;;;;;;;2.05;1.73;;;8.30;99.90;;;;;;5023750;28;20051;-67
2023/10/20 10:48:07;;;;;;;2.47;1.70;;;8.30;99.90;;;;;;5034726;28;20041;-68
2023/10/20 10:50:35;;;;;;;2.80;1.80;;;8.30;99.90;;;;;;5029950;28;20456;-67
2023/10/20 10:53:01;;;;;;;2.13;1.50;;;8.30;99.90;;;;;;5031548;28;20049;-69
2023/10/20 10:55:27;;;;;;;1.88;1.50;;;8.30;99.90;;;;;;5051410;28;20036;-69
2023/10/20 10:57:52;;;;;;;1.50;1.25;;;8.30;99.90;;;;;;5022306;28;20040;-69
2023/10/20 11:00:19;;;;;;;1.88;1.50;;;8.30;99.90;;;;;;5023770;28;20041;-71
2023/10/20 11:02:46;;;;;;;2.50;1.50;;;8.30;99.90;;;;;;5047424;28;20113;-69
2023/10/20 11:05:12;;;;;;;1.75;1.38;;;8.30;99.90;;;;;;5051101;28;20064;-73
2023/10/20 11:07:38;;;;;;;1.67;1.35;;;8.30;99.90;;;;;;5051785;28;20041;-70
2023/10/20 11:10:05;;;;;;;1.60;1.33;;;8.30;99.90;;;;;;5039912;28;20037;-71
2023/10/20 11:12:35;;;;;;;1.90;1.10;;;8.20;99.90;;;;;;5034202;28;20044;-72
2023/10/20 11:15:01;;;;;;;1.52;1.20;;;8.20;99.90;;;;;;5052831;28;20048;-72
2023/10/20 11:17:27;;;;;;;1.65;1.20;;;8.20;99.90;;;;;;5037685;28;20110;-71
2023/10/20 11:19:53;;;;;;;1.10;1.00;;;8.20;99.90;;;;;;5043020;28;20048;-68
2023/10/20 11:22:19;;;;;;;1.48;1.10;;;8.10;99.90;;;;;;5038987;28;20103;-66
2023/10/20 11:24:52;;;;;;;1.35;1.20;;;8.20;99.90;;;;;;5045662;28;20041;-71
2023/10/20 11:27:18;;;;;;;2.20;1.20;;;8.10;99.90;;;;;;5050912;28;20099;-71
2023/10/20 11:29:45;;;;;;;1.67;1.20;;;8.10;99.90;;;;;;5029341;28;20103;-71
2023/10/20 11:32:13;;;;;;;1.67;1.00;;;8.10;99.90;;;;;;5019627;28;20115;-75
2023/10/20 11:34:39;;;;;;;1.38;1.20;;;8.20;99.90;;;;;;5029174;28;20531;-70
2023/10/20 11:37:06;;;;;;;1.83;1.40;;;8.20;99.90;;;;;;5044224;28;20225;-71
2023/10/20 11:39:36;;;;;;;1.70;1.20;;;8.20;99.90;;;;;;5046186;28;20044;-70
2023/10/20 11:42:02;;;;;;;0.98;0.73;;;8.20;99.90;;;;;;5049046;28;20034;-72
2023/10/20 11:44:28;;;;;;;1.58;1.00;;;8.20;99.90;;;;;;5044637;28;20033;-71
2023/10/20 11:46:54;;;;;;;0.95;0.93;;;8.10;99.90;;;;;;5045414;28;20076;-71
2023/10/20 11:49:21;;;;;;;1.00;0.95;;;8.10;99.90;;;;;;5055070;28;20041;-72
2023/10/20 11:51:47;;;;;;;2.63;1.00;;;8.10;99.90;;;;;;5023022;28;20132;-71
2023/10/20 11:54:13;;;;;;;1.48;0.98;;;8.10;99.90;;;;;;5035437;28;20504;-71
2023/10/20 11:56:39;;;;;;;0.95;0.90;;;8.10;99.90;;;;;;5038803;28;20130;-69
2023/10/20 11:59:05;;;;;;;1.73;1.08;;;8.20;99.90;;;;;;5044857;28;20099;-69
2023/10/20 12:01:33;;;;;;;0.98;0.90;;;8.20;99.90;;;;;;5054710;28;20045;-69
2023/10/20 12:04:06;;;;;;;1.20;1.10;;;8.30;99.90;;;;;;5020671;28;20095;-67
2023/10/20 12:06:36;;;;;;;1.40;1.13;;;8.20;99.90;;;;;;5025520;28;20087;-67
2023/10/20 12:09:03;;;;;;;1.20;1.00;;;8.20;99.90;;;;;;5041209;28;20040;-68
2023/10/20 12:11:29;;;;;;;1.48;1.05;;;8.20;99.90;;;;;;5045388;28;20037;-71
2023/10/20 12:13:55;;;;;;;1.27;1.10;;;8.20;99.90;;;;;;5052784;28;20037;-70
2023/10/20 12:16:24;;;;;;;1.10;0.90;;;8.20;99.90;;;;;;5022431;28;20041;-69
2023/10/20 12:18:51;;;;;;;1.45;1.25;;;8.20;99.90;;;;;;5037840;28;20140;-71
2023/10/20 12:21:17;;;;;;;2.35;1.02;;;8.20;99.90;;;;;;5034564;28;20103;-72
2023/10/20 12:23:43;;;;;;;1.33;1.10;;;8.20;99.90;;;;;;5021405;28;20041;-73
2023/10/20 12:26:08;;;;;;;2.78;1.00;;;8.20;99.90;;;;;;5053039;28;20033;-73
2023/10/20 12:28:34;;;;;;;1.38;1.08;;;8.30;99.90;;;;;;5035108;28;20044;-73
2023/10/20 12:31:00;;;;;;;1.08;0.98;;;8.30;99.90;;;;;;5037826;28;20111;-73
2023/10/20 12:33:27;;;;;;;3.65;1.02;;;8.30;99.90;;;;;;5024070;28;20505;-72
2023/10/20 12:35:54;;;;;;;1.10;1.00;;;8.30;99.90;;;;;;5035450;28;20496;-70
2023/10/20 12:38:20;;;;;;;0.88;0.80;;;8.30;99.90;;;;;;5035647;28;20045;-72
2023/10/20 12:40:45;;;;;;;1.10;1.00;;;8.30;99.90;;;;;;5031139;28;20040;-71
2023/10/20 12:43:11;;;;;;;1.85;0.95;;;8.20;99.90;;;;;;5034443;28;20044;-69
2023/10/20 12:45:38;;;;;;;0.93;0.85;;;8.20;99.90;;;;;;5041931;28;20126;-69
2023/10/20 12:48:04;;;;;;;3.15;0.82;;;8.20;99.90;;;;;;5038677;28;20112;-69
2023/10/20 12:50:32;;;;;;;0.77;0.77;;;8.20;99.90;;;;;;5045307;28;20496;-69
2023/10/20 12:52:59;;;;;;;1.27;1.02;;;8.20;99.90;;;;;;5052275;28;20041;-69
2023/10/20 12:55:28;;;;;;;1.00;0.90;;;8.20;99.90;;;;;;5035931;28;20045;-69
2023/10/20 12:57:54;;;;;;;1.80;0.80;;;8.20;99.90;;;;;;5040310;28;20045;-69
2023/10/20 13:00:20;;;;;;;0.70;0.70;;;8.20;99.90;;;;;;5053159;28;20118;-69
2023/10/20 13:02:49;;;;;;;0.95;0.85;;;8.20;99.90;;;;;;5042453;28;20041;-69
2023/10/20 13:05:16;;;;;;;1.00;1.00;;;8.20;99.90;;;;;;5039500;28;20056;-69
2023/10/20 13:07:42;;;;;;;1.08;0.98;;;8.20;99.90;;;;;;5046871;28;20044;-69
2023/10/20 13:10:08;;;;;;;1.17;1.08;;;8.10;99.90;;;;;;5040768;28;20045;-72
2023/10/20 13:12:33;;;;;;;1.05;0.77;;;8.10;99.90;;;;;;5051698;28;20422;-73
2023/10/20 13:14:59;;;;;;;1.70;1.10;;;8.10;99.90;;;;;;5049394;28;20036;-72
2023/10/20 13:17:26;;;;;;;1.17;0.90;;;8.10;99.90;;;;;;5033986;28;20578;-71
2023/10/20 13:19:52;;;;;;;1.10;0.95;;;8.10;99.90;;;;;;5047373;28;20115;-69
2023/10/20 13:22:18;;;;;;;1.10;1.00;;;8.10;99.90;;;;;;5051568;28;20041;-70
2023/10/20 13:24:44;;;;;;;0.90;0.85;;;8.10;99.90;;;;;;5041505;28;20095;-68
2023/10/20 13:27:10;;;;;;;4.22;1.75;;;8.10;99.90;;;;;;5052378;28;20112;-67
2023/10/20 13:29:37;;;;;;;0.90;0.90;;;8.00;99.90;;;;;;5052863;28;20120;-66
2023/10/20 13:32:03;;;;;;;2.95;1.10;;;8.00;99.90;;;;;;5039878;28;20412;-66